createdAt,value
2023-04-07T00:00:56.073Z,28.77
2023-04-07T00:03:23.830Z,31.17
2023-04-07T00:05:51.183Z,29.75
2023-04-07T00:08:18.552Z,29.45
2023-04-07T00:10:45.840Z,29.95
2023-04-07T00:13:13.089Z,30.83
2023-04-07T00:15:40.453Z,30.00
2023-04-07T00:18:07.822Z,30.85
2023-04-07T00:20:35.140Z,28.00
2023-04-07T00:23:02.437Z,31.98
2023-04-07T00:25:29.684Z,29.57
2023-04-07T00:27:56.907Z,26.33
2023-04-07T00:30:24.337Z,28.70
2023-04-07T00:32:51.845Z,27.95
2023-04-07T00:35:19.199Z,24.90
2023-04-07T00:37:46.452Z,26.43
2023-04-07T00:40:13.764Z,26.70
2023-04-07T00:42:41.338Z,25.60
2023-04-07T00:45:10.592Z,26.63
2023-04-07T00:47:38.948Z,23.80
2023-04-07T00:50:06.694Z,23.87
2023-04-07T00:52:33.923Z,24.08
2023-04-07T00:55:01.991Z,27.67
2023-04-07T00:57:29.241Z,24.50
2023-04-07T00:59:56.535Z,25.80
2023-04-07T01:02:44.039Z,25.90
2023-04-07T01:05:17.104Z,26.40
2023-04-07T01:08:02.379Z,26.10
2023-04-07T01:10:51.671Z,25.08
2023-04-07T01:13:26.209Z,24.10
2023-04-07T01:15:59.535Z,22.67
2023-04-07T01:18:32.265Z,25.45
2023-04-07T01:21:05.115Z,24.42
2023-04-07T01:24:06.800Z,28.05
2023-04-07T01:26:34.102Z,27.08
2023-04-07T01:29:37.335Z,26.33
2023-04-07T01:32:06.244Z,26.17
2023-04-07T01:34:33.677Z,27.25
2023-04-07T01:37:01.988Z,26.42
2023-04-07T01:39:29.381Z,26.13
2023-04-07T01:41:57.094Z,26.43
2023-04-07T01:44:24.428Z,23.00
2023-04-07T01:46:51.882Z,24.60
2023-04-07T01:49:19.141Z,23.77
2023-04-07T01:51:52.371Z,26.17
2023-04-07T01:54:19.691Z,23.80
2023-04-07T01:56:46.974Z,24.45
2023-04-07T01:59:14.252Z,25.08
2023-04-07T02:01:42.743Z,28.92
2023-04-07T02:04:26.264Z,27.20
2023-04-07T02:06:56.486Z,30.23
2023-04-07T02:09:33.103Z,24.48
2023-04-07T02:12:00.979Z,25.92
2023-04-07T02:14:32.410Z,24.77
2023-04-07T02:17:04.267Z,24.52
2023-04-07T02:19:34.734Z,21.70
2023-04-07T02:22:05.596Z,22.15
2023-04-07T02:24:32.923Z,22.08
2023-04-07T02:27:02.167Z,22.58
2023-04-07T02:29:29.654Z,23.15
2023-04-07T02:31:56.994Z,24.30
2023-04-07T02:34:24.337Z,23.88
2023-04-07T02:36:51.672Z,25.63
2023-04-07T02:39:18.961Z,24.88
2023-04-07T02:41:46.307Z,22.80
2023-04-07T02:44:13.565Z,24.20
2023-04-07T02:46:41.441Z,21.92
2023-04-07T02:49:08.750Z,22.02
2023-04-07T02:51:35.986Z,23.30
2023-04-07T02:54:03.300Z,20.88
2023-04-07T02:56:31.450Z,20.03
2023-04-07T02:58:58.822Z,19.40
2023-04-07T03:01:26.506Z,20.10
2023-04-07T03:03:54.130Z,19.88
2023-04-07T03:06:24.625Z,19.75
2023-04-07T03:09:09.587Z,17.87
2023-04-07T03:11:37.509Z,18.58
2023-04-07T03:14:04.872Z,18.45
2023-04-07T03:16:33.532Z,19.25
2023-04-07T03:19:08.984Z,23.38
2023-04-07T03:21:40.502Z,19.40
2023-04-07T03:24:08.161Z,21.00
2023-04-07T03:26:35.528Z,21.25
2023-04-07T03:29:04.402Z,22.38
2023-04-07T03:31:32.195Z,22.23
2023-04-07T03:33:59.576Z,23.03
2023-04-07T03:36:28.242Z,24.08
2023-04-07T03:38:58.131Z,23.77
2023-04-07T03:41:25.560Z,24.25
2023-04-07T03:43:52.924Z,23.20
2023-04-07T03:46:21.511Z,23.13
2023-04-07T03:48:48.845Z,23.38
2023-04-07T03:51:16.304Z,24.95
2023-04-07T03:53:45.779Z,24.17
2023-04-07T03:56:25.407Z,25.50
2023-04-07T03:58:53.744Z,22.63
2023-04-07T04:01:31.449Z,24.65
2023-04-07T04:04:05.525Z,24.13
2023-04-07T04:06:32.983Z,20.90
2023-04-07T04:09:29.808Z,22.60
2023-04-07T04:11:57.150Z,21.27
2023-04-07T04:14:25.017Z,21.02
2023-04-07T04:16:57.279Z,20.40
2023-04-07T04:19:32.009Z,22.42
2023-04-07T04:22:03.654Z,22.73
2023-04-07T04:24:35.819Z,23.37
2023-04-07T04:27:04.714Z,22.35
2023-04-07T04:29:33.430Z,23.20
2023-04-07T04:32:02.935Z,22.15
2023-04-07T04:34:31.023Z,20.13
2023-04-07T04:36:59.541Z,20.47
2023-04-07T04:39:27.101Z,21.25
2023-04-07T04:41:54.489Z,21.27
2023-04-07T04:44:25.400Z,20.70
2023-04-07T04:46:53.039Z,22.25
2023-04-07T04:49:20.489Z,19.53
2023-04-07T04:51:50.010Z,22.08
2023-04-07T04:54:19.248Z,21.10
2023-04-07T04:56:46.519Z,22.63
2023-04-07T04:59:13.938Z,22.20
2023-04-07T05:01:58.969Z,22.97
2023-04-07T05:04:28.436Z,22.92
2023-04-07T05:07:03.590Z,21.60
2023-04-07T05:09:32.579Z,24.30
2023-04-07T05:11:59.945Z,21.90
2023-04-07T05:14:29.521Z,24.97
2023-04-07T05:17:04.328Z,23.75
2023-04-07T05:19:32.540Z,24.83
2023-04-07T05:22:05.600Z,23.80
2023-04-07T05:24:41.181Z,22.35
2023-04-07T05:27:08.485Z,22.07
2023-04-07T05:29:36.633Z,23.58
2023-04-07T05:32:05.950Z,22.88
2023-04-07T05:34:33.638Z,27.45
2023-04-07T05:37:01.042Z,23.17
2023-04-07T05:39:28.878Z,21.70
2023-04-07T05:41:58.191Z,20.75
2023-04-07T05:44:27.708Z,20.73
2023-04-07T05:46:56.070Z,18.27
2023-04-07T05:49:25.262Z,20.17
2023-04-07T05:52:01.204Z,18.83
2023-04-07T05:54:28.638Z,19.02
2023-04-07T05:56:57.846Z,19.20
2023-04-07T05:59:25.192Z,21.23
2023-04-07T06:01:53.189Z,21.67
2023-04-07T06:04:21.200Z,23.17
2023-04-07T06:06:50.751Z,24.30
2023-04-07T06:09:19.231Z,24.50
2023-04-07T06:11:47.215Z,27.55
2023-04-07T06:14:17.647Z,27.13
2023-04-07T06:16:44.960Z,27.93
2023-04-07T06:19:12.390Z,29.65
2023-04-07T06:21:40.091Z,29.80
2023-04-07T06:24:07.644Z,28.23
2023-04-07T06:26:36.329Z,29.05
2023-04-07T06:29:03.689Z,34.77
2023-04-07T06:31:31.483Z,35.00
2023-04-07T06:33:58.824Z,31.52
2023-04-07T06:36:27.744Z,32.50
2023-04-07T06:38:55.656Z,35.17
2023-04-07T06:41:22.904Z,34.57
2023-04-07T06:43:51.501Z,30.88
2023-04-07T06:46:19.111Z,29.58
2023-04-07T06:48:46.441Z,32.78
2023-04-07T06:51:13.698Z,31.55
2023-04-07T06:53:42.043Z,31.23
2023-04-07T06:56:10.749Z,29.48
2023-04-07T06:58:38.185Z,31.00
2023-04-07T07:01:06.187Z,28.25
2023-04-07T07:03:33.585Z,29.27
2023-04-07T07:06:01.255Z,28.63
2023-04-07T07:08:29.143Z,29.00
2023-04-07T07:10:56.494Z,25.77
2023-04-07T07:13:24.933Z,25.55
2023-04-07T07:15:52.587Z,24.63
2023-04-07T07:18:20.123Z,31.40
2023-04-07T07:20:47.350Z,27.05
2023-04-07T07:23:14.681Z,30.05
2023-04-07T07:25:42.091Z,28.15
2023-04-07T07:28:09.824Z,25.27
2023-04-07T07:30:39.384Z,22.20
2023-04-07T07:33:06.801Z,22.58
2023-04-07T07:35:34.442Z,25.20
2023-04-07T07:38:01.752Z,25.98
2023-04-07T07:40:29.025Z,23.98
2023-04-07T07:42:56.726Z,23.53
2023-04-07T07:45:24.100Z,21.55
2023-04-07T07:47:51.358Z,20.70
2023-04-07T07:50:18.733Z,22.13
2023-04-07T07:52:46.302Z,18.33
2023-04-07T07:55:13.542Z,19.90
2023-04-07T07:57:40.805Z,21.25
2023-04-07T08:00:08.581Z,21.85
2023-04-07T08:02:41.994Z,18.67
2023-04-07T08:05:09.631Z,17.92
2023-04-07T08:07:37.766Z,21.40
2023-04-07T08:10:05.729Z,18.42
2023-04-07T08:12:32.946Z,19.60
2023-04-07T08:15:00.413Z,20.40
2023-04-07T08:17:27.698Z,20.60
2023-04-07T08:19:54.961Z,20.73
2023-04-07T08:22:25.267Z,21.65
2023-04-07T08:24:52.522Z,22.02
2023-04-07T08:27:20.902Z,20.75
2023-04-07T08:30:01.074Z,22.63
2023-04-07T08:32:35.696Z,20.33
2023-04-07T08:35:03.131Z,21.83
2023-04-07T08:37:31.468Z,22.45
2023-04-07T08:39:58.737Z,21.80
2023-04-07T08:42:28.478Z,22.50
2023-04-07T08:45:05.854Z,22.70
2023-04-07T08:47:34.178Z,22.08
2023-04-07T08:50:08.939Z,21.83
2023-04-07T08:52:46.634Z,23.50
2023-04-07T08:55:13.926Z,23.00
2023-04-07T08:57:44.103Z,24.40
2023-04-07T09:00:11.983Z,23.52
2023-04-07T09:02:41.139Z,22.63
2023-04-07T09:05:09.095Z,23.10
2023-04-07T09:07:37.537Z,24.05
2023-04-07T09:10:05.516Z,25.30
2023-04-07T09:12:32.988Z,25.20
2023-04-07T09:15:00.492Z,27.63
2023-04-07T09:17:28.454Z,24.65
2023-04-07T09:19:59.292Z,25.88
2023-04-07T09:22:43.179Z,26.70
2023-04-07T09:25:22.923Z,27.35
2023-04-07T09:28:00.731Z,24.83
2023-04-07T09:30:29.143Z,27.67
2023-04-07T09:32:56.793Z,22.73
2023-04-07T09:35:24.853Z,25.03
2023-04-07T09:38:10.662Z,26.83
2023-04-07T09:40:38.635Z,28.05
2023-04-07T09:43:06.081Z,29.92
2023-04-07T09:45:36.552Z,27.65
2023-04-07T09:48:08.794Z,24.87
2023-04-07T09:50:39.157Z,26.55
2023-04-07T09:53:07.141Z,27.50
2023-04-07T09:55:35.048Z,27.67
2023-04-07T09:58:02.531Z,28.60
2023-04-07T10:00:29.831Z,26.43
2023-04-07T10:02:57.951Z,28.75
2023-04-07T10:05:25.560Z,23.95
2023-04-07T10:07:52.899Z,24.05
2023-04-07T10:10:20.404Z,23.33
2023-04-07T10:12:47.690Z,22.40
2023-04-07T10:15:16.046Z,23.98
2023-04-07T10:17:48.423Z,22.55
2023-04-07T10:20:20.957Z,19.63
2023-04-07T10:22:49.396Z,19.35
2023-04-07T10:25:18.539Z,21.03
2023-04-07T10:27:51.314Z,20.92
2023-04-07T10:30:22.456Z,17.27
2023-04-07T10:32:50.621Z,18.10
2023-04-07T10:35:18.034Z,18.30
2023-04-07T10:38:07.125Z,16.23
2023-04-07T10:40:35.577Z,19.33
2023-04-07T10:43:03.061Z,21.23
2023-04-07T10:45:48.944Z,20.33
2023-04-07T10:48:17.255Z,22.80
2023-04-07T10:51:08.393Z,22.77
2023-04-07T10:53:36.273Z,22.75
2023-04-07T10:56:03.599Z,24.98
2023-04-07T10:58:33.915Z,24.60
2023-04-07T11:01:01.354Z,23.48
2023-04-07T11:03:29.600Z,24.63
2023-04-07T11:06:10.673Z,23.70
2023-04-07T11:08:39.576Z,21.73
2023-04-07T11:11:09.419Z,20.55
2023-04-07T11:13:46.861Z,22.77
2023-04-07T11:16:17.977Z,22.90
2023-04-07T11:18:46.432Z,22.75
2023-04-07T11:21:19.377Z,22.80
2023-04-07T11:23:47.965Z,24.40
2023-04-07T11:26:16.121Z,23.63
2023-04-07T11:28:46.918Z,24.43
2023-04-07T11:31:23.043Z,26.35
2023-04-07T11:34:00.339Z,25.05
2023-04-07T11:36:38.874Z,23.92
2023-04-07T11:39:06.145Z,24.13
2023-04-07T11:41:33.688Z,23.93
2023-04-07T11:44:08.294Z,20.75
2023-04-07T11:46:36.333Z,22.25
2023-04-07T11:49:11.115Z,20.15
2023-04-07T11:51:38.528Z,22.15
2023-04-07T11:54:05.924Z,20.87
2023-04-07T11:56:48.094Z,22.60
2023-04-07T11:59:23.258Z,21.75
2023-04-07T12:01:51.319Z,22.75
2023-04-07T12:04:19.290Z,22.42
2023-04-07T12:06:47.660Z,21.73
2023-04-07T12:09:29.328Z,19.75
2023-04-07T12:11:57.916Z,17.38
2023-04-07T12:14:26.358Z,18.20
2023-04-07T12:16:56.532Z,17.40
2023-04-07T12:19:25.617Z,17.97
2023-04-07T12:21:52.891Z,15.48
2023-04-07T12:24:20.214Z,15.45
2023-04-07T12:26:48.086Z,16.73
2023-04-07T12:29:16.374Z,16.20
2023-04-07T12:31:43.938Z,18.70
2023-04-07T12:34:11.487Z,17.50
2023-04-07T12:36:38.973Z,19.38
2023-04-07T12:39:06.463Z,17.70
2023-04-07T12:41:33.758Z,18.08
2023-04-07T12:44:01.037Z,16.97
2023-04-07T12:46:28.417Z,17.48
2023-04-07T12:48:56.224Z,20.35
2023-04-07T12:51:23.688Z,19.70
2023-04-07T12:53:51.192Z,16.65
2023-04-07T12:56:18.540Z,16.93
2023-04-07T12:58:46.049Z,15.90
2023-04-07T13:01:13.501Z,15.55
2023-04-07T13:03:41.278Z,14.57
2023-04-07T13:06:08.592Z,14.32
2023-04-07T13:08:36.006Z,15.83
2023-04-07T13:11:03.434Z,15.25
2023-04-07T13:13:31.406Z,17.98
2023-04-07T13:15:58.770Z,17.20
2023-04-07T13:18:26.169Z,16.10
2023-04-07T13:21:13.158Z,19.53
2023-04-07T13:23:43.699Z,18.25
2023-04-07T13:26:11.711Z,17.13
2023-04-07T13:28:39.168Z,15.73
2023-04-07T13:31:06.576Z,16.75
2023-04-07T13:33:34.827Z,16.73
2023-04-07T13:36:02.166Z,16.63
2023-04-07T13:38:29.522Z,15.10
2023-04-07T13:40:56.880Z,14.85
2023-04-07T13:43:24.193Z,16.58
2023-04-07T13:45:51.755Z,16.57
2023-04-07T13:48:19.125Z,17.33
2023-04-07T13:50:46.408Z,14.45
2023-04-07T13:53:13.669Z,15.63
2023-04-07T13:55:41.192Z,14.48
2023-04-07T13:58:08.539Z,12.93
2023-04-07T14:00:38.356Z,15.63
2023-04-07T14:03:05.829Z,16.20
2023-04-07T14:05:33.286Z,14.63
2023-04-07T14:08:00.576Z,15.60
2023-04-07T14:10:27.895Z,13.07
2023-04-07T14:12:55.120Z,12.10
2023-04-07T14:15:22.420Z,13.45
2023-04-07T14:17:49.778Z,14.27
2023-04-07T14:20:17.171Z,14.38
2023-04-07T14:22:44.630Z,13.87
2023-04-07T14:25:12.272Z,15.13
2023-04-07T14:27:39.645Z,16.75
2023-04-07T14:30:07.536Z,16.05
2023-04-07T14:32:36.010Z,15.40
2023-04-07T14:35:03.335Z,16.63
2023-04-07T14:37:30.688Z,17.23
2023-04-07T14:42:29.798Z,15.57
2023-04-07T14:44:57.154Z,17.95
2023-04-07T14:47:24.506Z,17.67
2023-04-07T14:49:53.541Z,19.63
2023-04-07T14:52:22.080Z,14.50
2023-04-07T14:54:49.491Z,16.10
2023-04-07T14:57:17.169Z,15.73
2023-04-07T14:59:44.623Z,15.37
2023-04-07T15:02:12.025Z,20.60
2023-04-07T15:04:39.634Z,19.65
2023-04-07T15:07:07.014Z,18.65
2023-04-07T15:09:34.388Z,23.70
2023-04-07T15:12:02.255Z,21.17
2023-04-07T15:14:29.615Z,21.15
2023-04-07T15:16:56.893Z,19.85
2023-04-07T15:19:24.114Z,18.27
2023-04-07T15:21:51.381Z,19.08
2023-04-07T15:24:19.700Z,18.60
2023-04-07T15:26:47.017Z,18.80
2023-04-07T15:29:14.305Z,15.68
2023-04-07T15:31:41.583Z,17.70
2023-04-07T15:34:08.840Z,18.33
2023-04-07T15:36:36.085Z,18.57
2023-04-07T15:39:04.521Z,19.75
2023-04-07T15:41:31.885Z,24.35
2023-04-07T15:44:01.491Z,25.23
2023-04-07T15:46:28.979Z,23.60
2023-04-07T15:48:56.304Z,23.33
2023-04-07T15:51:23.664Z,20.95
2023-04-07T15:53:51.105Z,23.95
2023-04-07T15:56:18.653Z,23.55
2023-04-07T15:58:46.057Z,22.83
2023-04-07T16:01:13.412Z,22.87
2023-04-07T16:03:40.957Z,23.08
2023-04-07T16:06:08.346Z,22.60
2023-04-07T16:08:35.685Z,23.45
2023-04-07T16:11:02.968Z,23.00
2023-04-07T16:13:30.307Z,23.23
2023-04-07T16:15:57.757Z,23.38
2023-04-07T16:18:25.042Z,24.10
2023-04-07T16:20:52.254Z,23.30
2023-04-07T16:23:19.567Z,24.02
2023-04-07T16:25:46.839Z,31.73
2023-04-07T16:28:14.095Z,29.45
2023-04-07T16:30:41.446Z,27.25
2023-04-07T16:33:08.789Z,27.17
2023-04-07T16:35:36.393Z,25.90
2023-04-07T16:38:06.019Z,26.13
2023-04-07T16:40:33.503Z,26.60
2023-04-07T16:43:00.846Z,27.45
2023-04-07T16:45:28.128Z,26.67
2023-04-07T16:47:55.522Z,27.75
2023-04-07T16:50:22.949Z,24.77
2023-04-07T16:52:50.294Z,26.35
2023-04-07T16:55:17.658Z,30.23
2023-04-07T16:57:45.004Z,26.33
2023-04-07T17:00:13.061Z,26.73
2023-04-07T17:02:40.483Z,24.93
2023-04-07T17:05:08.311Z,28.67
2023-04-07T17:07:36.013Z,26.65
2023-04-07T17:10:03.788Z,24.88
2023-04-07T17:12:31.047Z,26.25
2023-04-07T17:14:58.329Z,27.50
2023-04-07T17:17:25.770Z,26.38
2023-04-07T17:19:53.889Z,26.42
2023-04-07T17:22:21.976Z,25.48
2023-04-07T17:24:49.286Z,26.17
2023-04-07T17:27:16.543Z,26.43
2023-04-07T17:29:43.821Z,29.55
2023-04-07T17:32:11.070Z,28.48
2023-04-07T17:34:38.306Z,26.95
2023-04-07T17:37:05.788Z,26.50
2023-04-07T17:39:33.051Z,29.50
2023-04-07T17:42:00.394Z,31.70
2023-04-07T17:44:27.801Z,27.63
2023-04-07T17:46:55.310Z,31.20
2023-04-07T17:49:22.721Z,31.95
2023-04-07T17:51:50.008Z,31.00
2023-04-07T17:54:17.346Z,34.58
2023-04-07T17:56:44.618Z,31.95
2023-04-07T17:59:12.045Z,29.83
2023-04-07T18:01:39.777Z,30.02
2023-04-07T18:04:07.387Z,31.23
2023-04-07T18:06:35.218Z,30.45
2023-04-07T18:09:04.637Z,33.08
2023-04-07T18:11:32.816Z,32.97
2023-04-07T18:14:00.568Z,29.63
2023-04-07T18:16:28.025Z,31.83
2023-04-07T18:18:55.424Z,31.75
2023-04-07T18:21:22.753Z,33.70
2023-04-07T18:23:50.185Z,34.65
2023-04-07T18:26:17.641Z,31.73
2023-04-07T18:28:44.910Z,33.10
2023-04-07T18:31:12.522Z,34.17
2023-04-07T18:33:39.853Z,34.72
2023-04-07T18:36:07.668Z,32.53
2023-04-07T18:38:35.958Z,34.38
2023-04-07T18:41:05.769Z,31.50
2023-04-07T18:43:33.031Z,34.30
2023-04-07T18:46:00.313Z,33.88
2023-04-07T18:48:27.761Z,34.13
2023-04-07T18:50:55.532Z,36.72
2023-04-07T18:53:23.473Z,37.07
2023-04-07T18:55:51.338Z,35.63
2023-04-07T18:58:19.394Z,40.40
2023-04-07T19:00:47.582Z,35.00
2023-04-07T19:03:14.987Z,39.22
2023-04-07T19:05:42.463Z,37.80
2023-04-07T19:08:09.840Z,34.53
2023-04-07T19:10:37.228Z,38.45
2023-04-07T19:13:04.793Z,38.22
2023-04-07T19:15:36.516Z,41.28
2023-04-07T19:18:04.113Z,38.50
2023-04-07T19:20:33.535Z,38.65
2023-04-07T19:23:01.959Z,38.03
2023-04-07T19:25:30.740Z,42.25
2023-04-07T19:27:58.248Z,40.45
2023-04-07T19:30:25.601Z,41.77
2023-04-07T19:32:53.296Z,40.15
2023-04-07T19:35:21.113Z,42.58
2023-04-07T19:37:48.526Z,41.65
2023-04-07T19:40:15.896Z,43.50
2023-04-07T19:42:43.143Z,40.17
2023-04-07T19:45:10.572Z,35.95
2023-04-07T19:47:38.487Z,35.60
2023-04-07T19:50:06.787Z,37.10
2023-04-07T19:52:34.126Z,40.88
2023-04-07T19:55:02.744Z,40.53
2023-04-07T19:57:31.263Z,39.83
2023-04-07T19:59:58.508Z,42.58
2023-04-07T20:02:26.054Z,38.22
2023-04-07T20:04:53.758Z,40.42
2023-04-07T20:07:21.912Z,44.17
2023-04-07T20:09:51.435Z,39.25
2023-04-07T20:12:18.786Z,43.20
2023-04-07T20:14:46.380Z,42.33
2023-04-07T20:17:13.592Z,39.17
2023-04-07T20:19:41.533Z,42.10
2023-04-07T20:22:08.917Z,39.20
2023-04-07T20:24:36.275Z,39.17
2023-04-07T20:27:03.610Z,39.72
2023-04-07T20:29:31.216Z,40.25
2023-04-07T20:31:58.501Z,37.10
2023-04-07T20:34:25.911Z,35.53
2023-04-07T20:36:53.197Z,42.42
2023-04-07T20:39:20.529Z,39.97
2023-04-07T20:41:48.019Z,39.58
2023-04-07T20:44:15.328Z,36.27
2023-04-07T20:46:44.003Z,39.60
2023-04-07T20:49:11.248Z,40.67
2023-04-07T20:51:38.519Z,38.85
2023-04-07T20:54:06.036Z,40.45
2023-04-07T20:56:33.386Z,35.73
2023-04-07T20:59:00.897Z,37.20
2023-04-07T21:01:28.407Z,39.65
2023-04-07T21:03:55.788Z,37.35
2023-04-07T21:06:23.078Z,36.50
2023-04-07T21:08:50.554Z,32.70
2023-04-07T21:11:17.920Z,34.58
2023-04-07T21:13:45.416Z,34.53
2023-04-07T21:16:12.738Z,34.08
2023-04-07T21:18:40.108Z,36.92
2023-04-07T21:21:08.267Z,31.43
2023-04-07T21:23:35.559Z,34.03
2023-04-07T21:26:05.998Z,33.60
2023-04-07T21:28:33.301Z,31.90
2023-04-07T21:31:01.381Z,33.97
2023-04-07T21:33:28.955Z,34.57
2023-04-07T21:35:56.532Z,34.42
2023-04-07T21:38:23.865Z,34.40
2023-04-07T21:40:51.331Z,34.17
2023-04-07T21:43:18.605Z,36.05
2023-04-07T21:45:47.070Z,38.73
2023-04-07T21:48:20.840Z,38.05
2023-04-07T21:50:48.180Z,36.50
2023-04-07T21:53:15.431Z,38.03
2023-04-07T21:55:42.700Z,36.88
2023-04-07T21:58:10.386Z,32.70
2023-04-07T22:00:38.540Z,36.08
2023-04-07T22:03:07.163Z,33.00
2023-04-07T22:05:34.637Z,38.10
2023-04-07T22:08:03.137Z,49.15
2023-04-07T22:10:31.043Z,41.30
2023-04-07T22:12:58.307Z,36.17
2023-04-07T22:15:25.746Z,34.15
2023-04-07T22:17:53.099Z,30.25
2023-04-07T22:20:20.463Z,35.42
2023-04-07T22:22:47.724Z,33.17
2023-04-07T22:25:15.055Z,32.45
2023-04-07T22:27:42.362Z,31.17
2023-04-07T22:30:10.942Z,34.03
2023-04-07T22:32:38.377Z,32.95
2023-04-07T22:35:05.966Z,33.30
2023-04-07T22:37:33.232Z,32.53
2023-04-07T22:40:00.555Z,32.88
2023-04-07T22:42:27.814Z,34.28
2023-04-07T22:44:55.080Z,35.17
2023-04-07T22:47:22.640Z,34.77
2023-04-07T22:49:49.981Z,34.30
2023-04-07T22:52:17.248Z,33.35
2023-04-07T22:54:44.600Z,30.25
2023-04-07T22:57:11.883Z,30.75
2023-04-07T22:59:39.106Z,30.87
2023-04-07T23:02:06.393Z,32.60
2023-04-07T23:04:33.717Z,32.78
2023-04-07T23:07:01.450Z,30.88
2023-04-07T23:09:28.692Z,29.48
2023-04-07T23:11:57.101Z,26.63
2023-04-07T23:14:24.373Z,30.45
2023-04-07T23:16:51.748Z,33.15
2023-04-07T23:19:19.123Z,30.50
2023-04-07T23:21:46.389Z,29.67
2023-04-07T23:24:13.742Z,30.67
2023-04-07T23:26:41.088Z,29.63
2023-04-07T23:29:08.413Z,29.17
2023-04-07T23:31:35.930Z,29.25
2023-04-07T23:34:04.210Z,30.88
2023-04-07T23:36:31.605Z,28.67
2023-04-07T23:38:58.923Z,28.10
2023-04-07T23:41:26.181Z,29.38
2023-04-07T23:43:53.463Z,28.20
2023-04-07T23:46:22.096Z,29.80
2023-04-07T23:48:49.911Z,31.30
2023-04-07T23:51:17.342Z,29.40
2023-04-07T23:53:44.650Z,28.63
2023-04-07T23:56:12.011Z,28.58
2023-04-07T23:58:39.302Z,30.30
